createdAt,value
2022-08-12T00:02:03.888Z,2.73
2022-08-12T00:04:51.952Z,2.43
2022-08-12T00:07:37.385Z,3.07
2022-08-12T00:10:23.587Z,2.57
2022-08-12T00:13:09.205Z,2.27
2022-08-12T00:15:54.830Z,3.10
2022-08-12T00:18:40.669Z,2.80
2022-08-12T00:21:26.720Z,2.40
2022-08-12T00:24:13.347Z,2.67
2022-08-12T00:26:59.337Z,2.63
2022-08-12T00:29:48.002Z,2.20
2022-08-12T00:32:35.865Z,2.60
2022-08-12T00:35:24.467Z,3.00
2022-08-12T00:38:20.374Z,3.53
2022-08-12T00:41:05.665Z,3.57
2022-08-12T00:43:34.178Z,3.03
2022-08-12T00:46:21.590Z,3.83
2022-08-12T00:48:48.997Z,3.67
2022-08-12T00:51:16.080Z,3.33
2022-08-12T00:53:43.180Z,3.77
2022-08-12T00:56:10.303Z,3.80
2022-08-12T00:58:39.165Z,4.20
2022-08-12T01:01:07.590Z,4.33
2022-08-12T01:03:54.338Z,3.80
2022-08-12T01:06:40.642Z,4.27
2022-08-12T01:09:26.863Z,3.83
2022-08-12T01:11:54.395Z,3.87
2022-08-12T01:14:24.995Z,4.07
2022-08-12T01:16:52.447Z,4.00
2022-08-12T01:19:23.754Z,3.80
2022-08-12T01:21:55.653Z,3.30
2022-08-12T01:24:43.831Z,3.60
2022-08-12T01:27:11.265Z,3.87
2022-08-12T01:29:42.059Z,3.77
2022-08-12T01:32:10.505Z,3.23
2022-08-12T01:34:38.796Z,3.00
2022-08-12T01:37:07.524Z,3.20
2022-08-12T01:39:38.703Z,3.20
2022-08-12T01:42:25.780Z,3.20
2022-08-12T01:44:53.997Z,2.87
2022-08-12T01:47:26.050Z,2.93
2022-08-12T01:50:11.502Z,2.77
2022-08-12T01:53:10.518Z,3.13
2022-08-12T01:55:41.960Z,3.80
2022-08-12T01:58:11.708Z,3.37
2022-08-12T02:00:55.404Z,4.30
2022-08-12T02:04:00.566Z,4.10
2022-08-12T02:06:54.907Z,4.17
2022-08-12T02:09:46.870Z,4.60
2022-08-12T02:12:27.584Z,4.47
2022-08-12T02:15:07.064Z,4.67
2022-08-12T02:18:00.104Z,3.90
2022-08-12T02:20:35.290Z,4.27
2022-08-12T02:23:19.395Z,4.20
2022-08-12T02:25:47.415Z,3.90
2022-08-12T02:28:14.548Z,3.97
2022-08-12T02:30:42.740Z,3.97
2022-08-12T02:33:10.201Z,3.83
2022-08-12T02:35:37.547Z,3.87
2022-08-12T02:38:06.397Z,3.80
2022-08-12T02:40:35.755Z,3.43
2022-08-12T02:43:08.364Z,3.40
2022-08-12T02:45:36.172Z,4.00
2022-08-12T02:48:06.498Z,3.60
2022-08-12T02:50:34.882Z,3.53
2022-08-12T02:53:02.983Z,3.43
2022-08-12T02:55:34.767Z,3.67
2022-08-12T02:58:12.624Z,3.60
2022-08-12T03:00:42.677Z,3.03
2022-08-12T03:03:12.819Z,3.60
2022-08-12T03:05:50.935Z,3.00
2022-08-12T03:08:31.556Z,3.03
2022-08-12T03:11:04.643Z,3.00
2022-08-12T03:13:38.919Z,3.00
2022-08-12T03:16:05.843Z,2.83
2022-08-12T03:18:32.793Z,2.60
2022-08-12T03:21:00.377Z,2.73
2022-08-12T03:23:30.836Z,2.50
2022-08-12T03:26:02.671Z,2.40
2022-08-12T03:28:49.554Z,2.70
2022-08-12T03:31:18.007Z,2.47
2022-08-12T03:34:00.756Z,3.13
2022-08-12T03:36:28.722Z,2.80
2022-08-12T03:39:14.532Z,2.60
2022-08-12T03:41:45.431Z,2.40
2022-08-12T03:44:36.273Z,2.50
2022-08-12T03:47:34.648Z,2.60
2022-08-12T03:50:21.335Z,2.33
2022-08-12T03:53:07.149Z,2.53
2022-08-12T03:55:53.491Z,2.13
2022-08-12T03:58:39.265Z,2.30
2022-08-12T04:01:06.545Z,2.57
2022-08-12T04:03:52.436Z,2.90
2022-08-12T04:06:35.137Z,2.90
2022-08-12T04:09:05.183Z,2.47
2022-08-12T04:12:01.344Z,2.80
2022-08-12T04:14:28.246Z,2.37
2022-08-12T04:16:56.162Z,2.30
2022-08-12T04:19:25.025Z,2.90
2022-08-12T04:22:01.952Z,2.50
2022-08-12T04:24:35.239Z,2.60
2022-08-12T04:27:08.399Z,2.70
2022-08-12T04:30:16.649Z,2.60
2022-08-12T04:32:24.784Z,2.63
2022-08-12T04:34:52.991Z,2.67
2022-08-12T04:37:19.937Z,2.47
2022-08-12T04:39:48.354Z,2.40
2022-08-12T04:42:16.041Z,2.53
2022-08-12T04:44:43.265Z,2.40
2022-08-12T04:47:14.250Z,2.70
2022-08-12T04:49:43.238Z,2.70
2022-08-12T04:52:10.187Z,2.43
2022-08-12T04:54:37.703Z,2.60
2022-08-12T04:57:05.827Z,2.20
2022-08-12T04:59:46.839Z,2.70
2022-08-12T05:02:21.478Z,3.00
2022-08-12T05:04:55.649Z,2.20
2022-08-12T05:07:23.302Z,2.23
2022-08-12T05:10:00.138Z,2.23
2022-08-12T05:12:37.261Z,2.70
2022-08-12T05:15:19.538Z,2.00
2022-08-12T05:17:52.815Z,2.67
2022-08-12T05:20:22.905Z,2.67
2022-08-12T05:22:56.988Z,2.73
2022-08-12T05:25:26.405Z,2.80
2022-08-12T05:27:59.211Z,2.80
2022-08-12T05:30:27.273Z,2.87
2022-08-12T05:32:55.641Z,2.57
2022-08-12T05:35:27.724Z,2.33
2022-08-12T05:38:14.644Z,2.40
2022-08-12T05:40:41.946Z,2.10
2022-08-12T05:43:08.871Z,2.57
2022-08-12T05:45:35.756Z,2.50
2022-08-12T05:48:02.683Z,2.20
2022-08-12T05:50:29.559Z,2.30
2022-08-12T05:52:56.324Z,2.40
2022-08-12T05:55:26.937Z,2.73
2022-08-12T05:57:57.023Z,2.80
2022-08-12T06:00:25.848Z,2.30
2022-08-12T06:02:56.984Z,2.40
2022-08-12T06:05:24.194Z,2.23
2022-08-12T06:08:01.465Z,2.13
2022-08-12T06:10:32.086Z,2.37
2022-08-12T06:13:05.018Z,2.47
2022-08-12T06:15:35.698Z,2.37
2022-08-12T06:18:13.933Z,2.50
2022-08-12T06:20:43.605Z,2.13
2022-08-12T06:23:11.831Z,2.30
2022-08-12T06:25:38.939Z,2.43
2022-08-12T06:28:14.478Z,2.50
2022-08-12T06:30:41.318Z,2.30
2022-08-12T06:33:21.438Z,2.27
2022-08-12T06:35:51.291Z,2.30
2022-08-12T06:38:20.141Z,2.10
2022-08-12T06:41:06.459Z,2.00
2022-08-12T06:44:06.520Z,2.20
2022-08-12T06:46:22.099Z,2.10
2022-08-12T06:48:56.781Z,2.20
2022-08-12T06:51:23.928Z,2.30
2022-08-12T06:53:50.812Z,2.10
2022-08-12T06:56:18.706Z,2.07
2022-08-12T06:58:47.606Z,2.30
2022-08-12T07:01:17.341Z,2.20
2022-08-12T07:03:44.368Z,1.87
2022-08-12T07:06:14.440Z,2.40
2022-08-12T07:08:43.558Z,2.20
2022-08-12T07:11:13.378Z,1.87
2022-08-12T07:14:12.746Z,2.00
2022-08-12T07:16:50.548Z,1.93
2022-08-12T07:19:17.626Z,1.80
2022-08-12T07:21:57.959Z,2.00
2022-08-12T07:24:29.483Z,2.37
2022-08-12T07:26:56.397Z,2.17
2022-08-12T07:29:23.199Z,2.40
2022-08-12T07:31:50.046Z,2.37
2022-08-12T07:34:17.217Z,2.10
2022-08-12T07:36:45.667Z,2.00
2022-08-12T07:39:13.562Z,2.13
2022-08-12T07:41:40.625Z,2.27
2022-08-12T07:44:08.259Z,1.90
2022-08-12T07:46:37.255Z,2.00
2022-08-12T07:49:05.999Z,1.87
2022-08-12T07:51:33.457Z,2.00
2022-08-12T07:54:03.215Z,1.80
2022-08-12T07:56:33.302Z,2.27
2022-08-12T07:59:00.947Z,2.30
2022-08-12T08:01:28.118Z,1.93
2022-08-12T08:04:18.407Z,2.07
2022-08-12T08:06:46.300Z,2.00
2022-08-12T08:09:15.609Z,1.97
2022-08-12T08:12:01.180Z,2.27
2022-08-12T08:14:29.065Z,2.00
2022-08-12T08:16:57.189Z,2.10
2022-08-12T08:19:26.883Z,1.80
2022-08-12T08:21:55.104Z,1.87
2022-08-12T08:24:24.525Z,1.87
2022-08-12T08:26:53.125Z,2.10
2022-08-12T08:29:21.471Z,1.90
2022-08-12T08:31:53.897Z,1.80
2022-08-12T08:34:47.342Z,1.90
2022-08-12T08:37:10.713Z,1.60
2022-08-12T08:39:42.396Z,1.90
2022-08-12T08:42:28.000Z,2.03
2022-08-12T08:44:58.169Z,1.93
2022-08-12T08:47:25.439Z,1.77
2022-08-12T08:49:52.432Z,1.83
2022-08-12T08:52:40.348Z,2.10
2022-08-12T08:55:13.764Z,1.77
2022-08-12T08:57:44.708Z,1.93
2022-08-12T09:00:15.573Z,1.60
2022-08-12T09:02:49.108Z,1.90
2022-08-12T09:05:26.136Z,1.90
2022-08-12T09:08:12.223Z,2.00
2022-08-12T09:10:45.252Z,1.63
2022-08-12T09:14:11.022Z,1.70
2022-08-12T09:16:19.985Z,1.90
2022-08-12T09:18:48.079Z,1.83
2022-08-12T09:21:19.991Z,1.63
2022-08-12T09:23:59.454Z,1.70
2022-08-12T09:26:38.230Z,1.60
2022-08-12T09:29:15.225Z,1.73
2022-08-12T09:32:07.921Z,1.63
2022-08-12T09:34:33.890Z,1.50
2022-08-12T09:37:20.133Z,1.40
2022-08-12T09:40:06.165Z,1.50
2022-08-12T09:43:15.582Z,1.80
2022-08-12T09:46:06.761Z,1.80
2022-08-12T09:48:34.900Z,1.50
2022-08-12T09:51:04.293Z,1.40
2022-08-12T09:53:38.605Z,1.60
2022-08-12T09:57:00.932Z,1.40
2022-08-12T09:59:00.384Z,1.90
2022-08-12T10:01:35.244Z,1.83
2022-08-12T10:04:15.586Z,1.60
2022-08-12T10:06:54.280Z,1.53
2022-08-12T10:09:28.722Z,1.37
2022-08-12T10:12:41.718Z,1.50
2022-08-12T10:15:15.433Z,1.57
2022-08-12T10:18:06.879Z,1.50
2022-08-12T10:20:35.521Z,1.30
2022-08-12T10:23:03.545Z,1.77
2022-08-12T10:26:34.968Z,1.50
2022-08-12T10:29:02.367Z,1.70
2022-08-12T10:31:46.987Z,1.40
2022-08-12T10:34:26.061Z,1.60
2022-08-12T10:36:58.686Z,1.70
2022-08-12T10:40:01.198Z,1.60
2022-08-12T10:42:46.214Z,1.50
2022-08-12T10:45:14.314Z,1.60
2022-08-12T10:48:07.625Z,1.63
2022-08-12T10:51:00.378Z,1.40
2022-08-12T10:53:21.230Z,1.50
2022-08-12T10:56:08.200Z,1.50
2022-08-12T10:58:36.583Z,1.63
2022-08-12T11:01:48.920Z,1.60
2022-08-12T11:04:24.857Z,1.55
2022-08-12T11:07:06.014Z,1.27
2022-08-12T11:09:54.339Z,1.33
2022-08-12T11:12:55.346Z,1.20
2022-08-12T11:15:14.789Z,1.30
2022-08-12T11:17:53.404Z,1.50
2022-08-12T11:20:30.993Z,1.55
2022-08-12T11:22:59.585Z,1.80
2022-08-12T11:25:56.296Z,1.20
2022-08-12T11:28:14.093Z,1.23
2022-08-12T11:30:41.798Z,1.42
2022-08-12T11:33:11.824Z,1.48
2022-08-12T11:35:43.019Z,1.30
2022-08-12T11:38:10.667Z,1.10
2022-08-12T11:40:37.959Z,1.27
2022-08-12T11:43:19.894Z,1.10
2022-08-12T11:45:47.695Z,1.35
2022-08-12T11:48:20.385Z,1.17
2022-08-12T11:50:54.391Z,0.95
2022-08-12T11:53:57.592Z,1.35
2022-08-12T11:56:11.317Z,1.20
2022-08-12T12:00:53.118Z,1.08
2022-08-12T12:02:03.412Z,1.00
2022-08-12T12:04:12.350Z,1.35
2022-08-12T12:06:55.743Z,0.90
2022-08-12T12:09:22.697Z,1.10
2022-08-12T12:11:51.156Z,1.13
2022-08-12T12:14:18.059Z,1.15
2022-08-12T12:16:49.984Z,1.10
2022-08-12T12:19:17.752Z,1.20
2022-08-12T12:21:47.009Z,1.10
2022-08-12T12:24:21.887Z,1.20
2022-08-12T12:27:00.195Z,1.02
2022-08-12T12:30:18.175Z,1.00
2022-08-12T12:32:16.934Z,1.20
2022-08-12T12:35:17.754Z,1.15
2022-08-12T12:38:04.391Z,1.00
2022-08-12T12:40:19.574Z,1.10
2022-08-12T12:42:56.802Z,1.38
2022-08-12T12:45:32.397Z,1.30
2022-08-12T12:48:10.341Z,1.15
2022-08-12T12:50:42.526Z,1.02
2022-08-12T12:54:08.653Z,1.30
2022-08-12T12:56:05.435Z,1.00
2022-08-12T12:58:32.394Z,1.20
2022-08-12T13:01:04.757Z,1.40
2022-08-12T13:03:55.382Z,1.00
2022-08-12T13:06:25.446Z,1.00
2022-08-12T13:08:57.254Z,1.08
2022-08-12T13:11:41.144Z,1.10
2022-08-12T13:14:12.973Z,1.00
2022-08-12T13:16:56.617Z,1.38
2022-08-12T13:19:32.974Z,1.30
2022-08-12T13:22:18.816Z,1.00
2022-08-12T13:24:46.564Z,1.30
2022-08-12T13:27:20.705Z,1.03
2022-08-12T13:29:48.844Z,1.20
2022-08-12T13:32:30.906Z,1.33
2022-08-12T13:35:04.446Z,1.40
2022-08-12T13:37:54.760Z,1.13
2022-08-12T13:40:34.964Z,1.30
2022-08-12T13:43:02.535Z,1.30
2022-08-12T13:45:33.267Z,1.50
2022-08-12T13:48:02.233Z,1.40
2022-08-12T13:50:33.566Z,1.20
2022-08-12T13:53:01.315Z,1.27
2022-08-12T13:55:49.747Z,1.53
2022-08-12T13:58:18.930Z,1.23
2022-08-12T14:00:50.974Z,1.30
2022-08-12T14:03:18.707Z,1.50
2022-08-12T14:05:45.669Z,1.40
2022-08-12T14:08:21.126Z,1.40
2022-08-12T14:10:53.379Z,1.50
2022-08-12T14:14:03.289Z,1.40
2022-08-12T14:16:37.809Z,1.40
2022-08-12T14:19:18.305Z,1.40
2022-08-12T14:22:01.530Z,1.30
2022-08-12T14:24:35.045Z,1.30
2022-08-12T14:27:02.803Z,1.20
2022-08-12T14:29:56.305Z,1.40
2022-08-12T14:32:19.118Z,1.30
2022-08-12T14:34:52.875Z,1.30
2022-08-12T14:37:57.414Z,1.23
2022-08-12T14:40:13.193Z,1.30
2022-08-12T14:42:46.811Z,1.20
2022-08-12T14:45:14.556Z,1.40
2022-08-12T14:47:58.599Z,1.30
2022-08-12T14:50:37.551Z,1.30
2022-08-12T14:55:05.663Z,1.20
2022-08-12T14:59:23.091Z,1.33
2022-08-12T15:01:52.174Z,1.10
2022-08-12T15:04:28.467Z,1.00
2022-08-12T15:06:55.760Z,1.20
2022-08-12T15:09:29.095Z,1.27
2022-08-12T15:12:03.499Z,1.37
2022-08-12T15:14:31.519Z,1.00
2022-08-12T15:17:00.112Z,1.47
2022-08-12T15:20:27.759Z,1.50
2022-08-12T15:22:37.065Z,1.30
2022-08-12T15:25:07.602Z,1.10
2022-08-12T15:28:04.683Z,1.40
2022-08-12T15:30:31.992Z,1.43
2022-08-12T15:32:59.889Z,1.70
2022-08-12T15:35:31.303Z,1.37
2022-08-12T15:38:10.166Z,1.33
2022-08-12T15:40:48.372Z,1.60
2022-08-12T15:43:51.149Z,1.30
2022-08-12T15:46:04.668Z,1.30
2022-08-12T15:48:32.672Z,1.20
2022-08-12T15:51:00.451Z,1.30
2022-08-12T15:53:46.719Z,1.30
2022-08-12T15:56:22.137Z,1.33
2022-08-12T15:58:59.058Z,0.90
2022-08-12T16:01:35.146Z,1.30
2022-08-12T16:04:05.217Z,1.47
2022-08-12T16:09:56.361Z,1.00
2022-08-12T16:12:11.213Z,1.43
2022-08-12T16:14:39.648Z,1.30
2022-08-12T16:17:08.775Z,1.40
2022-08-12T16:20:04.003Z,1.77
2022-08-12T16:22:24.542Z,1.50
2022-08-12T16:24:54.065Z,1.67
2022-08-12T16:27:25.523Z,1.53
2022-08-12T16:29:57.289Z,1.45
2022-08-12T16:32:31.085Z,1.50
2022-08-12T16:34:59.087Z,1.20
2022-08-12T16:37:32.558Z,1.20
2022-08-12T16:40:18.816Z,1.43
2022-08-12T16:42:53.852Z,1.80
2022-08-12T16:46:24.041Z,1.80
2022-08-12T16:48:35.277Z,1.87
2022-08-12T16:51:05.804Z,1.50
2022-08-12T16:53:45.202Z,1.50
2022-08-12T16:56:16.977Z,1.30
2022-08-12T16:58:44.414Z,1.60
2022-08-12T17:01:15.497Z,1.50
2022-08-12T17:03:52.028Z,1.23
2022-08-12T17:06:22.405Z,1.60
2022-08-12T17:09:08.609Z,1.63
2022-08-12T17:11:43.662Z,1.30
2022-08-12T17:14:10.571Z,1.40
2022-08-12T17:16:40.282Z,1.80
2022-08-12T17:19:09.077Z,1.67
2022-08-12T17:21:40.220Z,2.30
2022-08-12T17:24:21.590Z,2.00
2022-08-12T17:26:50.368Z,1.80
2022-08-12T17:29:32.022Z,1.70
2022-08-12T17:32:08.572Z,1.70
2022-08-12T17:34:55.225Z,2.47
2022-08-12T17:37:22.119Z,2.10
2022-08-12T17:40:14.849Z,1.83
2022-08-12T17:42:40.577Z,2.40
2022-08-12T17:45:17.972Z,2.03
2022-08-12T17:48:04.511Z,1.37
2022-08-12T17:50:33.737Z,1.73
2022-08-12T17:53:02.741Z,1.63
2022-08-12T17:55:40.920Z,1.50
2022-08-12T17:58:12.877Z,1.53
2022-08-12T18:00:42.561Z,1.50
2022-08-12T18:03:09.789Z,1.70
2022-08-12T18:05:55.730Z,1.30
2022-08-12T18:08:29.388Z,1.80
2022-08-12T18:11:21.215Z,1.43
2022-08-12T18:14:02.529Z,1.60
2022-08-12T18:16:29.639Z,1.30
2022-08-12T18:19:01.999Z,1.13
2022-08-12T18:22:01.160Z,1.60
2022-08-12T18:24:16.933Z,1.37
2022-08-12T18:26:48.943Z,1.43
2022-08-12T18:29:16.547Z,1.67
2022-08-12T18:31:59.933Z,1.70
2022-08-12T18:34:32.324Z,1.20
2022-08-12T18:36:59.778Z,1.50
2022-08-12T18:40:05.538Z,1.53
2022-08-12T18:42:32.886Z,1.90
2022-08-12T18:45:02.336Z,1.90
2022-08-12T18:47:55.179Z,1.80
2022-08-12T18:50:24.594Z,1.83
2022-08-12T18:52:52.561Z,1.70
2022-08-12T18:55:19.749Z,1.70
2022-08-12T18:58:08.331Z,1.93
2022-08-12T19:00:34.815Z,1.83
2022-08-12T19:03:05.531Z,1.60
2022-08-12T19:05:55.090Z,1.50
2022-08-12T19:08:29.793Z,1.73
2022-08-12T19:11:20.063Z,1.73
2022-08-12T19:14:05.606Z,1.40
2022-08-12T19:16:39.860Z,1.30
2022-08-12T19:19:08.272Z,1.40
2022-08-12T19:21:37.555Z,1.50
2022-08-12T19:24:23.852Z,1.83
2022-08-12T19:26:57.286Z,1.33
2022-08-12T19:29:24.470Z,1.63
2022-08-12T19:31:57.300Z,1.40
2022-08-12T19:38:02.651Z,1.70
2022-08-12T19:40:20.605Z,1.60
2022-08-12T19:43:01.899Z,1.60
2022-08-12T19:45:41.748Z,1.67
2022-08-12T19:48:16.990Z,2.00
2022-08-12T19:50:45.415Z,1.87
2022-08-12T19:53:18.618Z,1.93
2022-08-12T19:55:51.691Z,2.33
2022-08-12T19:58:18.900Z,2.17
2022-08-12T20:00:53.330Z,2.23
2022-08-12T20:03:38.817Z,1.63
2022-08-12T20:06:14.041Z,1.63
2022-08-12T20:08:48.827Z,1.83
2022-08-12T20:12:11.143Z,1.93
2022-08-12T20:14:19.304Z,1.73
2022-08-12T20:16:52.782Z,1.80
2022-08-12T20:19:52.501Z,1.67
2022-08-12T20:22:14.752Z,1.90
2022-08-12T20:24:44.752Z,1.53
2022-08-12T20:27:29.475Z,1.73
2022-08-12T20:30:00.702Z,1.40
2022-08-12T20:32:29.516Z,1.40
2022-08-12T20:35:10.282Z,1.77
2022-08-12T20:38:04.912Z,1.70
2022-08-12T20:40:26.816Z,1.73
2022-08-12T20:42:57.230Z,1.70
2022-08-12T20:45:25.956Z,1.70
2022-08-12T20:48:04.282Z,1.67
2022-08-12T20:50:31.710Z,1.67
2022-08-12T20:53:00.972Z,1.63
2022-08-12T20:55:42.097Z,1.83
2022-08-12T20:58:10.615Z,1.70
2022-08-12T21:00:37.661Z,1.60
2022-08-12T21:03:24.606Z,1.60
2022-08-12T21:06:13.567Z,1.57
2022-08-12T21:08:42.772Z,1.60
2022-08-12T21:11:10.389Z,1.83
2022-08-12T21:13:41.754Z,1.63
2022-08-12T21:16:10.006Z,1.73
2022-08-12T21:18:39.929Z,1.60
2022-08-12T21:21:22.836Z,1.80
2022-08-12T21:23:51.269Z,1.80
2022-08-12T21:26:23.020Z,2.43
2022-08-12T21:28:58.899Z,2.07
2022-08-12T21:32:40.363Z,2.10
2022-08-12T21:34:18.829Z,2.30
2022-08-12T21:36:49.477Z,2.23
2022-08-12T21:39:21.097Z,2.73
2022-08-12T21:41:51.430Z,2.37
2022-08-12T21:44:24.025Z,2.20
2022-08-12T21:47:19.652Z,2.20
2022-08-12T21:49:55.161Z,2.37
2022-08-12T21:52:34.277Z,2.73
2022-08-12T21:55:02.960Z,1.80
2022-08-12T21:57:30.323Z,2.17
2022-08-12T22:00:04.613Z,2.10
2022-08-12T22:03:02.831Z,2.20
2022-08-12T22:05:49.120Z,2.03
2022-08-12T22:08:22.107Z,2.40
2022-08-12T22:10:52.646Z,2.20
2022-08-12T22:14:02.580Z,2.57
2022-08-12T22:16:15.655Z,2.00
2022-08-12T22:18:50.280Z,2.67
2022-08-12T22:21:22.041Z,2.17
2022-08-12T22:23:52.239Z,2.20
2022-08-12T22:26:37.306Z,2.20
2022-08-12T22:29:23.961Z,2.30
2022-08-12T22:31:55.054Z,2.60
2022-08-12T22:34:29.604Z,2.50
2022-08-12T22:37:00.178Z,2.40
2022-08-12T22:39:27.125Z,2.60
2022-08-12T22:42:12.510Z,2.73
2022-08-12T22:44:58.118Z,2.77
2022-08-12T22:47:53.588Z,2.50
2022-08-12T22:50:26.810Z,2.20
2022-08-12T22:53:15.302Z,2.60
2022-08-12T22:55:59.208Z,2.40
2022-08-12T22:58:32.050Z,2.70
2022-08-12T23:01:01.783Z,2.40
2022-08-12T23:03:48.315Z,2.50
2022-08-12T23:06:21.894Z,2.97
2022-08-12T23:08:50.899Z,2.50
2022-08-12T23:11:23.746Z,2.30
2022-08-12T23:13:56.093Z,2.50
2022-08-12T23:16:28.829Z,2.67
2022-08-12T23:19:11.005Z,2.37
2022-08-12T23:22:06.630Z,2.40
2022-08-12T23:24:36.841Z,2.47
2022-08-12T23:27:43.951Z,2.87
2022-08-12T23:30:19.230Z,2.60
2022-08-12T23:32:54.431Z,2.83
2022-08-12T23:35:22.696Z,2.40
2022-08-12T23:37:53.955Z,2.20
2022-08-12T23:40:24.491Z,2.47
2022-08-12T23:42:54.184Z,2.07
2022-08-12T23:45:30.729Z,2.17
2022-08-12T23:48:00.479Z,2.50
2022-08-12T23:50:34.371Z,2.27
2022-08-12T23:53:03.392Z,2.27
2022-08-12T23:55:40.512Z,2.57
2022-08-12T23:58:22.993Z,2.20
